createdAt,value
2019-06-26T00:01:07.746Z,52.11
2019-06-26T00:02:07.779Z,52.01
2019-06-26T00:04:00.958Z,51.81
2019-06-26T00:05:01.001Z,51.91
2019-06-26T00:06:53.993Z,52.69
2019-06-26T00:07:54.011Z,52.59
2019-06-26T00:09:47.175Z,52.28
2019-06-26T00:10:47.213Z,52.56
2019-06-26T00:12:40.421Z,53.24
2019-06-26T00:13:40.414Z,53.15
2019-06-26T00:15:33.807Z,52.56
2019-06-26T00:16:33.838Z,52.18
2019-06-26T00:18:26.827Z,52.95
2019-06-26T00:19:26.846Z,52.86
2019-06-26T00:21:41.983Z,53.34
2019-06-26T00:22:42.009Z,53.34
2019-06-26T00:24:35.106Z,52.76
2019-06-26T00:25:35.143Z,52.76
2019-06-26T00:27:28.121Z,53.34
2019-06-26T00:28:28.155Z,53.63
2019-06-26T00:30:32.211Z,53.34
2019-06-26T00:31:32.245Z,53.63
2019-06-26T00:33:25.331Z,53.63
2019-06-26T00:34:25.363Z,53.73
2019-06-26T00:36:18.359Z,53.15
2019-06-26T00:37:18.377Z,53.73
2019-06-26T00:39:11.469Z,53.83
2019-06-26T00:40:11.501Z,53.34
2019-06-26T00:42:26.702Z,53.61
2019-06-26T00:43:41.585Z,53.41
2019-06-26T00:45:19.714Z,53.41
2019-06-26T00:46:19.748Z,53.31
2019-06-26T00:48:12.883Z,54.19
2019-06-26T00:49:12.920Z,54.09
2019-06-26T00:51:17.053Z,53.80
2019-06-26T00:52:17.070Z,53.51
2019-06-26T00:54:32.307Z,53.61
2019-06-26T00:55:32.246Z,54.09
2019-06-26T00:57:36.290Z,53.61
2019-06-26T00:58:36.322Z,53.70
2019-06-26T01:00:29.442Z,53.70
2019-06-26T01:01:29.474Z,54.19
2019-06-26T01:03:33.559Z,53.99
2019-06-26T01:04:33.596Z,54.38
2019-06-26T01:06:37.701Z,54.28
2019-06-26T01:07:37.712Z,54.09
2019-06-26T01:09:41.776Z,54.48
2019-06-26T01:10:41.809Z,54.38
2019-06-26T01:12:34.973Z,55.16
2019-06-26T01:13:35.008Z,54.58
2019-06-26T01:15:28.147Z,55.54
2019-06-26T01:16:28.156Z,54.86
2019-06-26T01:18:32.245Z,55.74
2019-06-26T01:20:56.328Z,55.35
2019-06-26T01:21:56.358Z,55.74
2019-06-26T01:24:00.445Z,55.35
2019-06-26T01:25:00.476Z,55.16
2019-06-26T01:26:53.545Z,55.93
2019-06-26T01:27:53.538Z,55.83
2019-06-26T01:29:57.645Z,55.26
2019-06-26T01:30:57.658Z,55.64
2019-06-26T01:33:01.748Z,55.81
2019-06-26T01:34:01.783Z,55.22
2019-06-26T01:36:05.867Z,56.03
2019-06-26T01:37:05.900Z,55.35
2019-06-26T01:39:09.985Z,55.64
2019-06-26T01:40:10.016Z,56.20
2019-06-26T01:42:14.230Z,55.42
2019-06-26T01:43:14.138Z,56.29
2019-06-26T01:45:18.216Z,56.00
2019-06-26T01:46:18.248Z,55.71
2019-06-26T01:48:22.334Z,56.10
2019-06-26T01:49:22.365Z,56.10
2019-06-26T01:51:26.453Z,55.93
2019-06-26T01:52:26.483Z,55.90
2019-06-26T01:54:31.028Z,56.49
2019-06-26T01:55:31.065Z,56.03
2019-06-26T01:56:31.101Z,56.20
2019-06-26T01:57:31.139Z,56.59
2019-06-26T01:58:31.178Z,56.97
2019-06-26T01:59:31.219Z,56.77
2019-06-26T02:00:31.270Z,56.68
2019-06-26T02:01:31.296Z,56.68
2019-06-26T02:02:31.337Z,56.97
2019-06-26T02:03:31.374Z,57.17
2019-06-26T02:04:31.416Z,57.17
2019-06-26T02:05:31.452Z,57.17
2019-06-26T02:06:31.490Z,57.36
2019-06-26T02:07:31.530Z,57.45
2019-06-26T02:08:31.577Z,57.84
2019-06-26T02:09:31.614Z,57.17
2019-06-26T02:10:31.654Z,57.75
2019-06-26T02:11:31.688Z,57.26
2019-06-26T02:12:31.728Z,57.07
2019-06-26T02:13:31.788Z,57.65
2019-06-26T02:14:31.997Z,57.84
2019-06-26T02:15:31.844Z,57.55
2019-06-26T02:16:31.882Z,57.65
2019-06-26T02:17:31.951Z,57.45
2019-06-26T02:18:31.968Z,57.65
2019-06-26T02:19:32.001Z,57.65
2019-06-26T02:20:32.038Z,57.84
2019-06-26T02:21:32.077Z,57.84
2019-06-26T02:22:32.117Z,58.23
2019-06-26T02:23:32.155Z,58.23
2019-06-26T02:24:32.194Z,58.23
2019-06-26T02:25:32.234Z,58.42
2019-06-26T02:26:32.273Z,58.52
2019-06-26T02:27:32.330Z,58.33
2019-06-26T02:28:32.350Z,58.81
2019-06-26T02:29:32.392Z,58.23
2019-06-26T02:30:32.428Z,58.72
2019-06-26T02:31:32.470Z,58.72
2019-06-26T02:32:32.508Z,58.91
2019-06-26T02:33:32.546Z,58.81
2019-06-26T02:34:32.583Z,58.62
2019-06-26T02:35:32.624Z,58.72
2019-06-26T02:36:32.663Z,58.81
2019-06-26T02:37:32.701Z,58.72
2019-06-26T02:38:32.742Z,58.72
2019-06-26T02:39:32.796Z,59.00
2019-06-26T02:40:32.819Z,58.81
2019-06-26T02:41:32.858Z,58.72
2019-06-26T02:42:32.896Z,59.39
2019-06-26T02:43:32.936Z,58.81
2019-06-26T02:44:51.526Z,58.62
2019-06-26T02:45:33.016Z,59.59
2019-06-26T02:46:33.052Z,59.00
2019-06-26T02:47:33.093Z,59.10
2019-06-26T02:48:33.131Z,59.69
2019-06-26T02:49:33.170Z,59.30
2019-06-26T02:50:33.208Z,60.07
2019-06-26T02:51:33.247Z,59.88
2019-06-26T02:52:33.286Z,59.49
2019-06-26T02:53:33.325Z,59.20
2019-06-26T02:54:33.370Z,59.69
2019-06-26T02:55:33.403Z,59.39
2019-06-26T02:56:33.449Z,60.36
2019-06-26T02:57:33.482Z,59.69
2019-06-26T02:58:33.522Z,59.59
2019-06-26T02:59:33.560Z,60.65
2019-06-26T03:00:33.598Z,60.36
2019-06-26T03:01:33.637Z,60.46
2019-06-26T03:02:33.681Z,60.07
2019-06-26T03:03:33.722Z,60.07
2019-06-26T03:04:33.754Z,59.97
2019-06-26T03:05:33.793Z,60.36
2019-06-26T03:06:33.834Z,60.07
2019-06-26T03:07:33.872Z,60.55
2019-06-26T03:08:33.910Z,60.07
2019-06-26T03:09:33.952Z,60.36
2019-06-26T03:10:33.988Z,60.27
2019-06-26T03:11:34.027Z,60.27
2019-06-26T03:12:34.070Z,60.07
2019-06-26T03:13:34.105Z,60.55
2019-06-26T03:14:34.199Z,61.24
2019-06-26T03:15:34.183Z,60.65
2019-06-26T03:16:34.221Z,60.85
2019-06-26T03:17:34.260Z,60.46
2019-06-26T03:18:34.300Z,60.65
2019-06-26T03:19:34.338Z,60.75
2019-06-26T03:20:34.380Z,61.33
2019-06-26T03:21:34.415Z,61.43
2019-06-26T03:22:34.456Z,60.94
2019-06-26T03:23:34.494Z,61.33
2019-06-26T03:24:34.534Z,61.14
2019-06-26T03:25:34.573Z,61.24
2019-06-26T03:26:34.611Z,61.24
2019-06-26T03:27:34.650Z,61.14
2019-06-26T03:28:34.704Z,61.33
2019-06-26T03:29:34.728Z,61.24
2019-06-26T03:30:34.778Z,61.04
2019-06-26T03:31:34.809Z,61.33
2019-06-26T03:32:34.845Z,61.82
2019-06-26T03:33:34.888Z,61.14
2019-06-26T03:34:34.929Z,61.91
2019-06-26T03:35:34.966Z,61.72
2019-06-26T03:36:35.000Z,62.01
2019-06-26T03:37:35.056Z,62.01
2019-06-26T03:38:35.082Z,62.20
2019-06-26T03:39:35.116Z,61.59
2019-06-26T03:40:35.156Z,61.62
2019-06-26T03:41:35.205Z,61.82
2019-06-26T03:42:35.234Z,62.10
2019-06-26T03:43:35.724Z,62.07
2019-06-26T03:44:35.314Z,62.10
2019-06-26T03:45:35.350Z,61.79
2019-06-26T03:46:35.398Z,62.20
2019-06-26T03:47:35.442Z,62.69
2019-06-26T03:48:35.467Z,62.30
2019-06-26T03:49:35.508Z,62.20
2019-06-26T03:50:35.551Z,62.30
2019-06-26T03:51:35.587Z,62.17
2019-06-26T03:52:35.622Z,62.27
2019-06-26T03:53:35.662Z,62.27
2019-06-26T03:54:35.705Z,63.04
2019-06-26T03:55:35.740Z,63.07
2019-06-26T03:56:35.777Z,62.88
2019-06-26T03:57:35.822Z,62.75
2019-06-26T03:58:35.857Z,63.07
2019-06-26T03:59:35.902Z,63.04
2019-06-26T04:00:35.978Z,63.04
2019-06-26T04:01:35.974Z,63.46
2019-06-26T04:02:36.015Z,63.07
2019-06-26T04:03:36.050Z,63.62
2019-06-26T04:04:36.089Z,62.98
2019-06-26T04:05:36.133Z,63.56
2019-06-26T04:06:36.200Z,62.95
2019-06-26T04:07:36.205Z,63.04
2019-06-26T04:08:36.247Z,63.56
2019-06-26T04:09:36.282Z,62.98
2019-06-26T04:10:36.322Z,63.65
2019-06-26T04:11:36.361Z,63.75
2019-06-26T04:12:36.496Z,63.85
2019-06-26T04:13:36.438Z,63.46
2019-06-26T04:14:36.477Z,62.98
2019-06-26T04:15:42.200Z,62.98
2019-06-26T04:16:36.554Z,62.98
2019-06-26T04:17:36.651Z,63.07
2019-06-26T04:18:36.633Z,63.07
2019-06-26T04:19:36.672Z,64.34
2019-06-26T04:20:36.710Z,64.24
2019-06-26T04:21:36.749Z,64.92
2019-06-26T04:22:36.791Z,65.01
2019-06-26T04:23:36.827Z,65.01
2019-06-26T04:24:36.866Z,65.01
2019-06-26T04:25:38.285Z,64.92
2019-06-26T04:26:36.991Z,64.82
2019-06-26T04:27:36.987Z,65.59
2019-06-26T04:28:37.022Z,64.92
2019-06-26T04:29:37.061Z,65.01
2019-06-26T04:30:37.102Z,64.82
2019-06-26T04:31:37.143Z,65.11
2019-06-26T04:32:37.178Z,65.59
2019-06-26T04:33:37.217Z,64.92
2019-06-26T04:34:37.257Z,64.92
2019-06-26T04:35:37.320Z,65.40
2019-06-26T04:36:37.333Z,65.11
2019-06-26T04:37:37.388Z,65.50
2019-06-26T04:38:37.411Z,65.40
2019-06-26T04:39:37.450Z,65.40
2019-06-26T04:40:37.489Z,65.50
2019-06-26T04:41:37.528Z,65.50
2019-06-26T04:42:37.567Z,65.01
2019-06-26T04:43:37.607Z,65.20
2019-06-26T04:44:37.646Z,66.08
2019-06-26T04:45:37.689Z,65.59
2019-06-26T04:46:37.724Z,65.40
2019-06-26T04:47:37.794Z,66.08
2019-06-26T04:48:37.800Z,65.69
2019-06-26T04:49:37.841Z,65.59
2019-06-26T04:50:37.879Z,65.79
2019-06-26T04:51:37.923Z,66.17
2019-06-26T04:52:37.958Z,66.08
2019-06-26T04:53:37.995Z,65.98
2019-06-26T04:54:38.036Z,65.20
2019-06-26T04:55:38.074Z,65.79
2019-06-26T04:56:38.111Z,66.27
2019-06-26T04:57:38.152Z,66.27
2019-06-26T04:58:38.190Z,66.27
2019-06-26T04:59:38.252Z,65.89
2019-06-26T05:00:38.269Z,65.98
2019-06-26T05:01:38.307Z,66.08
2019-06-26T05:02:38.349Z,66.85
2019-06-26T05:03:38.393Z,66.66
2019-06-26T05:04:38.426Z,66.17
2019-06-26T05:05:40.023Z,66.66
2019-06-26T05:06:38.505Z,66.66
2019-06-26T05:07:38.551Z,66.66
2019-06-26T05:08:38.579Z,67.05
2019-06-26T05:09:38.620Z,66.66
2019-06-26T05:10:38.663Z,66.50
2019-06-26T05:11:38.698Z,66.66
2019-06-26T05:12:38.735Z,67.14
2019-06-26T05:13:38.776Z,66.69
2019-06-26T05:14:38.813Z,66.79
2019-06-26T05:15:38.853Z,66.69
2019-06-26T05:16:38.892Z,66.79
2019-06-26T05:17:38.933Z,66.89
2019-06-26T05:18:38.971Z,67.18
2019-06-26T05:19:39.011Z,67.37
2019-06-26T05:20:39.047Z,66.50
2019-06-26T05:21:39.088Z,66.50
2019-06-26T05:22:39.128Z,66.79
2019-06-26T05:23:39.165Z,66.50
2019-06-26T05:24:39.204Z,66.69
2019-06-26T05:25:39.243Z,66.40
2019-06-26T05:26:39.283Z,66.40
2019-06-26T05:27:39.323Z,66.99
2019-06-26T05:28:39.361Z,66.50
2019-06-26T05:29:39.400Z,66.02
2019-06-26T05:30:39.549Z,66.50
2019-06-26T05:31:39.477Z,65.82
2019-06-26T05:32:39.518Z,66.44
2019-06-26T05:33:39.564Z,66.79
2019-06-26T05:34:39.594Z,66.20
2019-06-26T05:35:39.654Z,66.50
2019-06-26T05:36:39.672Z,66.50
2019-06-26T05:37:39.711Z,66.63
2019-06-26T05:38:39.763Z,66.72
2019-06-26T05:39:39.790Z,66.34
2019-06-26T05:40:39.830Z,66.34
2019-06-26T05:41:39.868Z,66.53
2019-06-26T05:42:39.907Z,66.34
2019-06-26T05:43:39.946Z,66.53
2019-06-26T05:44:39.997Z,65.66
2019-06-26T05:45:40.027Z,66.05
2019-06-26T05:46:40.243Z,66.14
2019-06-26T05:47:40.104Z,66.34
2019-06-26T05:48:40.142Z,66.24
2019-06-26T05:49:40.183Z,66.53
2019-06-26T05:50:40.225Z,66.34
2019-06-26T05:51:40.260Z,66.24
2019-06-26T05:52:42.722Z,66.34
2019-06-26T05:53:40.342Z,66.14
2019-06-26T05:54:40.378Z,66.08
2019-06-26T05:55:40.419Z,66.05
2019-06-26T05:56:40.458Z,65.89
2019-06-26T05:57:41.983Z,65.50
2019-06-26T05:58:40.537Z,65.20
2019-06-26T05:59:40.576Z,65.50
2019-06-26T06:00:40.660Z,65.59
2019-06-26T06:01:40.652Z,65.01
2019-06-26T06:02:40.692Z,65.20
2019-06-26T06:03:40.737Z,64.43
2019-06-26T06:04:40.772Z,65.20
2019-06-26T06:05:40.823Z,64.62
2019-06-26T06:06:42.309Z,64.62
2019-06-26T06:07:40.890Z,64.72
2019-06-26T06:08:40.929Z,64.65
2019-06-26T06:09:40.967Z,64.23
2019-06-26T06:10:41.008Z,64.17
2019-06-26T06:11:41.047Z,63.88
2019-06-26T06:12:41.093Z,63.88
2019-06-26T06:13:41.125Z,64.65
2019-06-26T06:14:41.165Z,64.95
2019-06-26T06:15:41.205Z,64.75
2019-06-26T06:16:47.512Z,64.75
2019-06-26T06:17:41.397Z,63.98
2019-06-26T06:18:41.336Z,64.17
2019-06-26T06:19:41.363Z,64.26
2019-06-26T06:20:41.404Z,64.17
2019-06-26T06:21:41.442Z,64.65
2019-06-26T06:22:41.483Z,64.20
2019-06-26T06:23:41.522Z,63.01
2019-06-26T06:24:41.561Z,63.23
2019-06-26T06:25:41.603Z,63.81
2019-06-26T06:26:41.641Z,63.32
2019-06-26T06:27:41.680Z,63.13
2019-06-26T06:28:41.723Z,62.84
2019-06-26T06:29:41.758Z,62.84
2019-06-26T06:30:41.798Z,63.04
2019-06-26T06:31:41.839Z,62.84
2019-06-26T06:32:41.877Z,62.58
2019-06-26T06:33:41.925Z,62.74
2019-06-26T06:34:41.960Z,62.84
2019-06-26T06:35:41.997Z,62.45
2019-06-26T06:36:42.037Z,62.38
2019-06-26T06:37:42.076Z,62.29
2019-06-26T06:38:42.118Z,62.38
2019-06-26T06:39:42.163Z,62.68
2019-06-26T06:40:42.198Z,62.58
2019-06-26T06:41:43.460Z,62.10
2019-06-26T06:42:42.278Z,62.19
2019-06-26T06:43:42.315Z,62.38
2019-06-26T06:44:42.359Z,61.90
2019-06-26T06:45:42.397Z,62.00
2019-06-26T06:46:42.463Z,61.22
2019-06-26T06:47:42.478Z,61.35
2019-06-26T06:48:42.518Z,61.05
2019-06-26T06:49:42.554Z,61.05
2019-06-26T06:50:42.594Z,61.44
2019-06-26T06:51:42.646Z,60.77
2019-06-26T06:52:42.678Z,60.38
2019-06-26T06:53:42.719Z,60.86
2019-06-26T06:54:42.780Z,60.77
2019-06-26T06:55:42.795Z,60.38
2019-06-26T06:56:42.835Z,60.96
2019-06-26T06:57:42.876Z,60.50
2019-06-26T06:58:42.942Z,59.63
2019-06-26T06:59:42.963Z,59.63
2019-06-26T07:00:43.029Z,59.23
2019-06-26T07:01:43.035Z,59.63
2019-06-26T07:02:43.082Z,59.82
2019-06-26T07:03:43.114Z,59.82
2019-06-26T07:04:43.158Z,59.72
2019-06-26T07:05:43.195Z,59.53
2019-06-26T07:06:43.235Z,59.63
2019-06-26T07:07:43.292Z,59.92
2019-06-26T07:08:43.316Z,60.21
2019-06-26T07:09:43.358Z,59.95
2019-06-26T07:10:43.399Z,59.27
2019-06-26T07:11:43.437Z,59.17
2019-06-26T07:12:43.476Z,58.97
2019-06-26T07:13:43.521Z,59.07
2019-06-26T07:14:43.557Z,58.97
2019-06-26T07:15:43.619Z,58.87
2019-06-26T07:16:43.660Z,58.78
2019-06-26T07:17:43.684Z,58.61
2019-06-26T07:18:43.721Z,58.03
2019-06-26T07:19:43.766Z,58.03
2019-06-26T07:20:44.845Z,58.20
2019-06-26T07:21:43.841Z,57.93
2019-06-26T07:22:43.892Z,57.45
2019-06-26T07:23:43.923Z,57.64
2019-06-26T07:24:43.962Z,57.15
2019-06-26T07:25:44.010Z,56.57
2019-06-26T07:26:44.043Z,56.67
2019-06-26T07:27:44.140Z,56.27
2019-06-26T07:28:44.123Z,56.76
2019-06-26T07:29:44.165Z,56.70
2019-06-26T07:30:44.216Z,56.50
2019-06-26T07:31:44.252Z,56.11
2019-06-26T07:32:44.286Z,56.30
2019-06-26T07:33:44.327Z,55.82
2019-06-26T07:34:44.369Z,55.52
2019-06-26T07:35:44.411Z,54.65
2019-06-26T07:36:44.450Z,55.33
2019-06-26T07:37:44.489Z,55.46
2019-06-26T07:38:44.534Z,55.26
2019-06-26T07:39:44.576Z,56.04
2019-06-26T07:40:44.617Z,55.36
2019-06-26T07:41:44.652Z,54.48
2019-06-26T07:42:44.698Z,54.48
2019-06-26T07:43:44.738Z,54.41
2019-06-26T07:44:44.777Z,54.70
2019-06-26T07:45:44.817Z,54.21
2019-06-26T07:46:44.857Z,54.11
2019-06-26T07:47:44.898Z,54.70
2019-06-26T07:48:44.947Z,54.41
2019-06-26T07:49:44.986Z,54.21
2019-06-26T07:50:45.037Z,53.44
2019-06-26T07:51:45.065Z,53.73
2019-06-26T07:52:45.115Z,53.95
2019-06-26T07:53:45.145Z,54.44
2019-06-26T07:54:45.186Z,53.75
2019-06-26T07:55:45.231Z,54.24
2019-06-26T07:56:45.267Z,53.95
2019-06-26T07:57:45.309Z,54.14
2019-06-26T07:58:45.358Z,53.85
2019-06-26T07:59:45.471Z,53.56
2019-06-26T08:00:45.474Z,53.00
2019-06-26T08:01:45.477Z,53.29
2019-06-26T08:02:45.518Z,53.09
2019-06-26T08:03:45.556Z,53.58
2019-06-26T08:04:45.602Z,53.68
2019-06-26T08:05:45.641Z,53.97
2019-06-26T08:06:45.683Z,53.88
2019-06-26T08:07:45.724Z,52.51
2019-06-26T08:08:45.780Z,52.61
2019-06-26T08:09:45.805Z,52.25
2019-06-26T08:10:45.865Z,51.86
2019-06-26T08:11:45.892Z,51.76
2019-06-26T08:12:45.929Z,51.66
2019-06-26T08:13:45.973Z,51.46
2019-06-26T08:14:46.036Z,51.95
2019-06-26T08:15:46.120Z,51.56
2019-06-26T08:16:46.103Z,51.66
2019-06-26T08:18:00.048Z,50.81
2019-06-26T08:18:46.181Z,50.71
2019-06-26T08:19:46.249Z,50.61
2019-06-26T08:20:55.391Z,50.51
2019-06-26T08:21:46.839Z,50.42
2019-06-26T08:22:46.345Z,49.95
2019-06-26T08:23:46.391Z,49.95
2019-06-26T08:24:46.436Z,50.05
2019-06-26T08:25:46.483Z,49.75
2019-06-26T08:26:46.520Z,50.05
2019-06-26T08:27:46.560Z,49.77
2019-06-26T08:28:46.597Z,49.26
2019-06-26T08:29:46.639Z,49.19
2019-06-26T08:30:46.683Z,49.19
2019-06-26T08:31:46.723Z,49.09
2019-06-26T08:32:46.765Z,48.80
2019-06-26T08:33:46.808Z,48.99
2019-06-26T08:34:46.856Z,48.60
2019-06-26T08:35:46.948Z,48.70
2019-06-26T08:36:46.936Z,48.70
2019-06-26T08:37:46.976Z,48.04
2019-06-26T08:38:47.018Z,48.63
2019-06-26T08:39:47.073Z,48.92
2019-06-26T08:40:47.106Z,48.92
2019-06-26T08:41:47.144Z,48.43
2019-06-26T08:42:47.225Z,48.53
2019-06-26T08:43:47.229Z,48.92
2019-06-26T08:44:47.272Z,48.72
2019-06-26T08:45:47.313Z,48.63
2019-06-26T08:46:47.356Z,48.72
2019-06-26T08:47:47.404Z,48.53
2019-06-26T08:48:51.574Z,48.82
2019-06-26T08:49:47.486Z,48.04
2019-06-26T08:50:47.525Z,47.77
2019-06-26T08:51:47.599Z,48.26
2019-06-26T08:52:47.610Z,47.97
2019-06-26T08:53:47.653Z,48.55
2019-06-26T08:54:47.695Z,48.36
2019-06-26T08:55:47.741Z,48.38
2019-06-26T08:56:47.786Z,48.68
2019-06-26T08:57:47.823Z,48.28
2019-06-26T08:58:47.867Z,48.38
2019-06-26T08:59:47.917Z,47.79
2019-06-26T09:00:47.952Z,47.79
2019-06-26T09:01:47.993Z,47.99
2019-06-26T09:02:48.038Z,47.79
2019-06-26T09:03:48.084Z,48.01
2019-06-26T09:04:48.121Z,47.33
2019-06-26T09:05:48.823Z,46.94
2019-06-26T09:06:48.217Z,46.74
2019-06-26T09:07:48.257Z,46.25
2019-06-26T09:08:48.294Z,46.17
2019-06-26T09:09:48.336Z,46.08
2019-06-26T09:10:48.381Z,46.47
2019-06-26T09:11:48.422Z,46.27
2019-06-26T09:12:48.466Z,46.17
2019-06-26T09:13:48.510Z,45.78
2019-06-26T09:14:48.552Z,46.17
2019-06-26T09:15:49.915Z,45.39
2019-06-26T09:16:48.638Z,44.02
2019-06-26T09:17:48.682Z,44.41
2019-06-26T09:18:48.724Z,43.84
2019-06-26T09:19:48.772Z,43.82
2019-06-26T09:20:48.811Z,44.04
2019-06-26T09:21:48.854Z,44.13
2019-06-26T09:22:48.900Z,43.55
2019-06-26T09:23:48.953Z,44.04
2019-06-26T09:24:48.984Z,44.04
2019-06-26T09:25:49.028Z,43.55
2019-06-26T09:26:49.072Z,43.47
2019-06-26T09:27:49.116Z,43.65
2019-06-26T09:28:49.200Z,43.47
2019-06-26T09:29:49.205Z,43.27
2019-06-26T09:30:49.555Z,43.47
2019-06-26T09:31:49.287Z,43.47
2019-06-26T09:32:49.331Z,43.66
2019-06-26T09:33:49.374Z,43.66
2019-06-26T09:34:49.423Z,43.76
2019-06-26T09:35:49.462Z,43.08
2019-06-26T09:36:49.504Z,42.51
2019-06-26T09:37:49.570Z,42.32
2019-06-26T09:38:49.594Z,41.92
2019-06-26T09:39:49.637Z,41.92
2019-06-26T09:40:49.680Z,42.11
2019-06-26T09:41:49.723Z,42.21
2019-06-26T09:42:49.775Z,42.32
2019-06-26T09:43:49.812Z,42.41
2019-06-26T09:44:49.869Z,42.80
2019-06-26T09:45:49.898Z,42.72
2019-06-26T09:46:49.949Z,42.82
2019-06-26T09:47:50.015Z,42.92
2019-06-26T09:48:53.090Z,41.94
2019-06-26T09:49:50.074Z,41.55
2019-06-26T09:50:50.122Z,41.25
2019-06-26T09:51:50.161Z,41.25
2019-06-26T09:52:50.205Z,41.17
2019-06-26T09:53:50.249Z,41.45
2019-06-26T09:54:50.296Z,41.08
2019-06-26T09:55:50.339Z,41.67
2019-06-26T09:56:50.381Z,41.27
2019-06-26T09:57:50.425Z,41.37
2019-06-26T09:58:50.524Z,41.17
2019-06-26T09:59:50.518Z,41.27
2019-06-26T10:00:50.558Z,41.17
2019-06-26T10:01:50.601Z,41.17
2019-06-26T10:02:50.684Z,41.17
2019-06-26T10:03:50.690Z,41.47
2019-06-26T10:04:50.865Z,40.48
2019-06-26T10:05:50.778Z,40.69
2019-06-26T10:06:50.855Z,41.17
2019-06-26T10:07:50.867Z,41.08
2019-06-26T10:08:54.149Z,41.17
2019-06-26T10:09:50.955Z,41.56
2019-06-26T10:10:50.998Z,41.86
2019-06-26T10:11:51.044Z,41.56
2019-06-26T10:12:51.098Z,41.27
2019-06-26T10:13:51.131Z,41.08
2019-06-26T10:14:51.174Z,41.17
2019-06-26T10:15:51.230Z,41.08
2019-06-26T10:16:51.263Z,41.09
2019-06-26T10:17:51.308Z,41.27
2019-06-26T10:19:05.641Z,40.90
2019-06-26T10:19:54.022Z,41.19
2019-06-26T10:20:51.443Z,40.80
2019-06-26T10:21:51.493Z,40.41
2019-06-26T10:22:51.560Z,39.94
2019-06-26T10:23:51.575Z,39.64
2019-06-26T10:24:51.619Z,39.94
2019-06-26T10:25:51.673Z,39.54
2019-06-26T10:26:51.708Z,39.34
2019-06-26T10:27:51.752Z,38.66
2019-06-26T10:28:51.812Z,39.15
2019-06-26T10:29:51.856Z,39.07
2019-06-26T10:30:51.895Z,39.26
2019-06-26T10:31:51.930Z,38.97
2019-06-26T10:32:51.973Z,38.87
2019-06-26T10:33:52.018Z,38.48
2019-06-26T10:34:52.112Z,38.38
2019-06-26T10:35:52.109Z,37.91
2019-06-26T10:36:52.158Z,38.10
2019-06-26T10:37:52.197Z,38.09
2019-06-26T10:38:52.242Z,38.18
2019-06-26T10:39:52.286Z,38.60
2019-06-26T10:40:52.336Z,39.09
2019-06-26T10:41:54.901Z,38.70
2019-06-26T10:42:52.434Z,38.60
2019-06-26T10:43:52.533Z,38.70
2019-06-26T10:44:52.523Z,37.61
2019-06-26T10:45:52.567Z,37.81
2019-06-26T10:46:52.618Z,38.01
2019-06-26T10:47:52.646Z,37.93
2019-06-26T10:48:52.692Z,37.32
2019-06-26T10:49:52.734Z,36.82
2019-06-26T10:50:58.251Z,37.71
2019-06-26T10:51:52.828Z,37.51
2019-06-26T10:52:52.871Z,37.51
2019-06-26T10:53:52.915Z,37.32
2019-06-26T10:54:52.965Z,37.32
2019-06-26T10:55:53.008Z,37.22
2019-06-26T10:56:53.050Z,37.32
2019-06-26T10:57:53.095Z,36.53
2019-06-26T10:58:53.156Z,36.84
2019-06-26T10:59:55.688Z,36.33
2019-06-26T11:00:53.232Z,36.45
2019-06-26T11:01:53.275Z,36.35
2019-06-26T11:02:53.322Z,36.65
2019-06-26T11:03:53.365Z,36.74
2019-06-26T11:04:53.410Z,36.55
2019-06-26T11:05:53.467Z,35.66
2019-06-26T11:06:53.499Z,35.76
2019-06-26T11:07:53.545Z,35.76
2019-06-26T11:08:53.606Z,35.36
2019-06-26T11:09:53.638Z,35.56
2019-06-26T11:10:53.682Z,35.56
2019-06-26T11:11:53.726Z,35.68
2019-06-26T11:12:53.774Z,35.28
2019-06-26T11:13:53.816Z,35.38
2019-06-26T11:14:53.863Z,35.77
2019-06-26T11:15:53.907Z,35.18
2019-06-26T11:16:53.950Z,35.58
2019-06-26T11:17:53.998Z,35.28
2019-06-26T11:18:54.042Z,35.97
2019-06-26T11:19:55.529Z,35.77
2019-06-26T11:20:54.131Z,35.77
2019-06-26T11:21:54.182Z,34.89
2019-06-26T11:22:54.226Z,35.79
2019-06-26T11:23:54.268Z,34.61
2019-06-26T11:24:54.312Z,34.22
2019-06-26T11:25:54.365Z,34.61
2019-06-26T11:26:54.404Z,35.40
2019-06-26T11:27:54.452Z,35.60
2019-06-26T11:28:54.554Z,35.30
2019-06-26T11:29:54.543Z,34.22
2019-06-26T11:30:54.585Z,34.01
2019-06-26T11:31:54.632Z,34.41
2019-06-26T11:32:54.680Z,34.31
2019-06-26T11:33:54.722Z,34.43
2019-06-26T11:34:54.768Z,34.51
2019-06-26T11:35:54.813Z,34.51
2019-06-26T11:37:03.898Z,34.23
2019-06-26T11:37:54.905Z,34.71
2019-06-26T11:38:54.949Z,34.53
2019-06-26T11:39:55.048Z,34.41
2019-06-26T11:40:55.123Z,34.23
2019-06-26T11:41:55.099Z,34.33
2019-06-26T11:42:55.133Z,34.53
2019-06-26T11:43:55.184Z,35.30
2019-06-26T11:44:55.222Z,35.20
2019-06-26T11:45:55.269Z,34.01
2019-06-26T11:46:55.321Z,34.01
2019-06-26T11:47:55.359Z,33.23
2019-06-26T11:48:55.408Z,33.23
2019-06-26T11:49:59.940Z,33.92
2019-06-26T11:50:55.498Z,34.61
2019-06-26T11:51:55.542Z,34.31
2019-06-26T11:52:55.602Z,34.22
2019-06-26T11:53:58.222Z,33.92
2019-06-26T11:55:02.622Z,34.41
2019-06-26T11:55:55.727Z,33.92
2019-06-26T11:56:55.780Z,33.25
2019-06-26T11:57:55.814Z,32.75
2019-06-26T11:58:55.862Z,33.13
2019-06-26T11:59:55.908Z,33.13
2019-06-26T12:00:55.984Z,33.15
2019-06-26T12:01:56.002Z,33.54
2019-06-26T12:02:56.042Z,33.04
2019-06-26T12:03:56.100Z,32.95
2019-06-26T12:04:56.148Z,32.75
2019-06-26T12:06:11.935Z,32.65
2019-06-26T12:06:56.226Z,32.28
2019-06-26T12:07:56.272Z,32.77
2019-06-26T12:08:56.320Z,32.57
2019-06-26T12:09:56.433Z,32.67
2019-06-26T12:10:56.409Z,32.97
2019-06-26T12:11:56.480Z,33.16
2019-06-26T12:12:56.512Z,32.77
2019-06-26T12:13:56.548Z,32.47
2019-06-26T12:14:56.607Z,32.28
2019-06-26T12:15:56.637Z,32.35
2019-06-26T12:16:56.683Z,32.77
2019-06-26T12:17:56.731Z,33.75
2019-06-26T12:18:56.775Z,33.65
2019-06-26T12:19:56.826Z,33.06
2019-06-26T12:20:56.872Z,33.36
2019-06-26T12:21:56.913Z,33.36
2019-06-26T12:22:56.959Z,33.18
2019-06-26T12:23:57.004Z,32.68
2019-06-26T12:24:57.050Z,31.99
2019-06-26T12:25:57.096Z,32.49
2019-06-26T12:26:57.159Z,32.68
2019-06-26T12:27:57.188Z,32.98
2019-06-26T12:28:57.237Z,32.39
2019-06-26T12:29:57.280Z,32.01
2019-06-26T12:30:57.325Z,32.31
2019-06-26T12:31:57.415Z,32.40
2019-06-26T12:33:03.386Z,32.50
2019-06-26T12:33:57.465Z,31.91
2019-06-26T12:34:57.512Z,32.80
2019-06-26T12:35:57.557Z,33.00
2019-06-26T12:36:57.603Z,32.29
2019-06-26T12:37:57.647Z,31.79
2019-06-26T12:38:57.694Z,32.29
2019-06-26T12:39:57.740Z,32.68
2019-06-26T12:40:57.866Z,32.88
2019-06-26T12:41:57.831Z,32.78
2019-06-26T12:42:57.880Z,32.59
2019-06-26T12:43:57.923Z,32.98
2019-06-26T12:44:57.987Z,33.08
2019-06-26T12:45:58.016Z,33.37
2019-06-26T12:46:58.062Z,33.37
2019-06-26T12:47:58.110Z,33.28
2019-06-26T12:48:58.164Z,33.28
2019-06-26T12:49:58.201Z,33.08
2019-06-26T12:50:58.259Z,33.18
2019-06-26T12:51:58.325Z,33.58
2019-06-26T12:52:58.338Z,33.29
2019-06-26T12:53:58.665Z,33.20
2019-06-26T12:54:58.431Z,33.29
2019-06-26T12:55:58.476Z,33.39
2019-06-26T12:56:58.522Z,33.20
2019-06-26T12:58:12.522Z,33.29
2019-06-26T12:59:00.000Z,33.39
2019-06-26T12:59:58.661Z,33.39
2019-06-26T13:00:58.707Z,33.20
2019-06-26T13:01:58.753Z,33.29
2019-06-26T13:02:58.800Z,33.39
2019-06-26T13:03:58.854Z,33.39
2019-06-26T13:04:58.911Z,33.20
2019-06-26T13:05:58.938Z,33.09
2019-06-26T13:06:59.209Z,33.20
2019-06-26T13:07:59.031Z,32.60
2019-06-26T13:08:59.081Z,32.40
2019-06-26T13:09:59.122Z,32.40
2019-06-26T13:10:59.169Z,31.81
2019-06-26T13:11:59.230Z,32.10
2019-06-26T13:12:59.260Z,32.29
2019-06-26T13:14:03.096Z,32.39
2019-06-26T13:14:59.357Z,32.68
2019-06-26T13:15:59.415Z,32.49
2019-06-26T13:16:59.446Z,32.88
2019-06-26T13:18:01.482Z,32.88
2019-06-26T13:18:59.540Z,32.98
2019-06-26T13:19:59.599Z,33.08
2019-06-26T13:20:59.674Z,32.98
2019-06-26T13:21:59.691Z,32.49
2019-06-26T13:22:59.739Z,32.68
2019-06-26T13:23:59.768Z,32.19
2019-06-26T13:24:59.815Z,32.77
2019-06-26T13:25:59.864Z,32.77
2019-06-26T13:26:59.910Z,32.77
2019-06-26T13:27:59.953Z,33.26
2019-06-26T13:28:59.999Z,33.56
2019-06-26T13:30:00.046Z,33.46
2019-06-26T13:31:00.160Z,33.58
2019-06-26T13:32:00.391Z,33.87